Página principal
METAR-TAF:

METAR-TAF

Aeroportos :

Kédougou, Senegal

latitude: 12-34N, longitude: 012-13W, altura: 178 m

Observação actual do tempo

O boletim foi feito há 37 minutos, às 11:00 UTC
Vento 4 kt de sudoeste
Temperatura 29°C
Humidade 74%
Pressão 1013 hPa
Visibilidade 10 km ou mais
Nuvens fragmentadasa uma altura de 1600 ft

METAR: GOTK 191100Z 22004KT 9999 BKN016 29/24 Q1013

Hora: 11:37 (11:37 UTC)


TAF: em falta

Observações e previsões do tempo de mais de 4000 aeroportos (mensagens METAR e TAF).

As estações disponíveis são os pontos amarelos e vermelhos sobre o mapa.

Mova o rato sobre o mapa para ver o nome da estação.

Depois clique no ponto para visualizar as observações e previsões meteorológicas.

Para alterar o mapa : clique nos botões verdes com uma cruz preta para aumentar o zoom; no botão verde com uma pitada de zoom; ou nas setas verdes para mapas adjacentes.


METAR-TAF: